METAR Data
IDs: Format: Raw Decoded Include TAF

Data at: 2028 UTC 19 May 2019

PABT 191953Z 35006KT 10SM BKN032 OVC050 10/06 A2980 RMK AO2 SLP098 T01000061 $
PABT 191853Z 35003KT 10SM BKN032 OVC055 08/06 A2980 RMK AO2 SLP100 T00830056 $
PABT 191753Z 01006KT 10SM BKN032 OVC055 07/05 A2980 RMK AO2 RAB02E39 SLP100 60009 4/001 T00720050 10072 20056 50003 $
PABT 191653Z 35004KT 10SM BKN032 OVC040 07/05 A2980 RMK AO2 RAE13 SLP101 P0000 T00720050 $
PABT 191553Z 32006KT 4SM -RA BR BKN032 OVC060 06/04 A2980 RMK AO2 RAE09B29 SLP098 P0002 T00610044 $
PABT 191453Z 35006KT 10SM -RA BKN042 OVC060 07/04 A2979 RMK AO2 SLP096 P0002 60006 T00670039 56007 $
PABT 191353Z 01006KT 10SM -RA BKN043 OVC060 06/04 A2980 RMK AO2 SLP097 P0000 T00610044 $
PABT 191253Z 02004KT 10SM -RA BKN048 OVC065 06/04 A2981 RMK AO2 SLP102 P0004 T00610044 $
PABT 191153Z 35004KT 6SM -RA BR BKN045 OVC060 06/04 A2981 RMK AO2 SLP104 P0004 60004 70004 4/003 T00610044 10144 20061 53009 $
PABT 191053Z 02004KT 10SM -RA SCT035 BKN060 OVC070 08/03 A2980 RMK AO2 RAB17 SLP101 P0000 T00780028 $
PABT 190953Z 34004KT 10SM SCT090 BKN110 BKN130 09/01 A2979 RMK AO2 SLP095 VIRGA N AND VC S AND W T00890011 $
PABT 190853Z COR 35008KT 10SM FEW050 BKN130 BKN220 10/01 A2979 RMK AO2 SLP094 T01000011 401670023 51001 $
PABT 190753Z 35004KT 10SM FEW050 FEW100 BKN220 11/02 A2978 RMK AO2 SLP093 T01110017 $
PABT 190653Z 01005KT 10SM FEW050 SCT100 13/02 A2979 RMK AO2 SLP094 T01330017 $
PABT 190553Z 35005KT 10SM FEW060 SCT100 14/02 A2978 RMK AO2 SLP093 VIRGA VC S 4/003 T01390022 10167 20139 $
PABT 190453Z 01006KT 10SM SCT060 SCT140 15/02 A2978 RMK AO2 SLP093 SHRA DSNT S T01500017
PABT 190353Z 01007KT 10SM FEW055 FEW110 17/02 A2978 RMK AO2 SLP092 SHRA DSNT S T01670022
PABT 190253Z 02007KT 10SM FEW055 FEW150 17/02 A2977 RMK AO2 SLP089 T01670022 58006
PABT 190153Z 02007KT 10SM FEW055 SCT220 17/02 A2978 RMK AO2 SLP092 T01670022
PABT 190053Z 02009KT 10SM FEW050 SCT230 16/02 A2978 RMK AO2 SLP093 T01610022
PABT 182353Z 02009KT 10SM FEW050 SCT230 16/03 A2979 RMK AO2 SLP096 4/004 T01560028 10161 20117 58001
PABT 182253Z 04008KT 10SM FEW046 SCT230 14/03 A2979 RMK SLP097 T01440028 VIA AUTODIAL
PABT 182153Z VRB05KT 10SM FEW044 FEW150 15/03 A2980 RMK AO2 SLP098 T01500028
PABT 182053Z 03006KT 10SM FEW044 14/03 A2979 RMK AO2 SLP098 T01440028 52002
PABT 181953Z 06006G14KT 10SM FEW042 13/03 A2979 RMK AO2 SLP097 T01330028
PABT 181853Z 05008KT 10SM FEW055 13/03 A2979 RMK AO2 SLP096 T01280028
PABT 181753Z 02007KT 10SM FEW055 12/02 A2979 RMK AO2 SLP096 4/004 T01170022 10117 20067 51006
PABT 181653Z 03007KT 10SM BKN055 09/03 A2978 RMK AO2 SLP094 T00890028
PABT 181553Z 02006KT 10SM BKN046 08/02 A2978 RMK AO2 SLP093 T00780022
PABT 181453Z 01008KT 10SM BKN046 07/02 A2977 RMK AO2 SLP090 T00720017 51009
PABT 181353Z 02008KT 10SM BKN050 07/02 A2976 RMK AO2 SLP088 T00720017
PABT 181253Z 04006KT 10SM BKN050 08/02 A2975 RMK AO2 SLP084 T00780022
PABT 181153Z 04006KT 10SM BKN055 07/02 A2974 RMK AO2 SLP081 70007 4/005 T00670017 10089 20044 52013
PABT 181053Z 01004KT 10SM SCT060 04/01 A2973 RMK AO2 SLP075 T00440006
PABT 180953Z 33006KT 10SM BKN060 BKN160 05/01 A2972 RMK AO2 SLP072 T00500006
PABT 180853Z COR 32004KT 10SM FEW055 SCT160 06/01 A2970 RMK AO2 SLP068 T00560011 401220042 53008